EDDC/DRS METAR and TAF weather

Enter ICAO airport designator
Station Type Date Time Source
EDDC METAR 2019/12/08 03:50 UTC NOAA

EDDC 080350Z 22011KT 9999 BKN041 08/03 Q1011


Station Type Date Time Source
EDDC Decoded METAR 2019/12/08 03:50 UTC NOAA

Dresden-Klotzsche, Germany (EDDC) 51-08N 013-45E 232M
Dec 07, 2019 - 10:50 PM EST / 2019.12.08 0350 UTC
Wind: from the SW (220 degrees) at 13 MPH (11 KT):0
Visibility: greater than 7 mile(s):0
Sky conditions: mostly cloudy
Temperature: 46 F (8 C)
Dew Point: 37 F (3 C)
Relative Humidity: 70%
Pressure (altimeter): 29.85 in. Hg (1011 hPa)
ob: EDDC 080350Z 22011KT 9999 BKN041 08/03 Q1011
cycle: 4

Station Type Date Time Source
EDDC TAF 2019/12/07 18:27 UTC NOAA

TAF EDDC 071700Z 0718/0818 25010G20KT 9999 SCT025 BKN040
TEMPO 0808/0810 22015G25KT
BECMG 0810/0812 23020G30KT
BECMG 0815/0818 23015G25KT

Example: see airport list